Flight Track Log - Related Links

Times and Time Zones

All times are in EDT time to prevent confusion due to time zone crossing. See the N456BK flight status page for this flight to view local times or setup timezone preferences in your user account.

Time Position Orientation Groundspeed Altitude Reporting Facility
EDT Latitude Longitude Course Direction KTS MPH feet Rate Location/Type
Wed 08:43:00 PM 41.4738 -75.4261 77° East  Level FlightAware Approximate
Wed 08:44:00 PM 41.4838 -75.3690 77° East  Level FlightAware Approximate
Wed 08:45:00 PM 41.4938 -75.3118 77° East  Level FlightAware Approximate
Wed 08:46:00 PM 41.5037 -75.2546 77° East  Level FlightAware Approximate
Wed 08:46:48 PM 41.5167 -75.2167 76° East 183 211 4,900  Level New York TRACON
Wed 08:47:00 PM 41.5136 -75.1974 77° East  Level FlightAware Approximate
Wed 08:47:48 PM 41.5333 -75.1500 72° East 182 209 4,900  Level New York TRACON
Wed 08:48:00 PM 41.5235 -75.1402 77° East  Level FlightAware Approximate
Wed 08:48:48 PM 41.5500 -75.0833 72° East 182 209 4,900  Level New York TRACON
Wed 08:49:00 PM 41.5334 -75.0829 76° East  Level FlightAware Approximate
Wed 08:49:42 PM 41.5500 -75.0167 90° East 180 207 4,900  Level New York TRACON
Wed 08:50:00 PM 41.5438 -75.0258 76° East  Level FlightAware Approximate
Wed 08:50:48 PM 41.5667 -74.9500 72° East 180 207 4,900  Level New York TRACON
Wed 08:51:00 PM 41.5542 -74.9687 76° East  Level FlightAware Approximate
Wed 08:51:48 PM 41.5667 -74.8833 90° East 180 207 5,000  Level New York TRACON
Wed 08:52:48 PM 41.5667 -74.8167 90° East 181 208 4,900 -50 Descending New York TRACON
Wed 08:53:48 PM 41.5500 -74.7500 108° East 180 207 4,900  Level New York TRACON
Wed 08:54:48 PM 41.5333 -74.6833 108° East 179 206 4,900  Level New York TRACON
Wed 08:55:54 PM 41.5333 -74.6167 90° East 179 206 4,900  Level New York TRACON
Wed 08:56:48 PM 41.5167 -74.5500 108° East 179 206 4,900  Level New York TRACON
Wed 08:57:48 PM 41.5167 -74.4833 90° East 179 206 4,900  Level New York TRACON
Wed 08:58:54 PM 41.5000 -74.4167 108° East 175 201 4,900  Level New York TRACON
Wed 08:59:48 PM 41.5000 -74.3667 90° East 172 198 4,900  Level New York TRACON
Wed 09:00:54 PM 41.4833 -74.3000 108° East 175 201 4,900  Level New York TRACON
Wed 09:01:54 PM 41.4833 -74.2333 90° East 171 197 4,900  Level New York TRACON
Wed 09:02:54 PM 41.4667 -74.1667 108° East 179 206 4,900  Level New York TRACON
Wed 09:03:54 PM 41.4667 -74.1000 90° East 179 206 4,900  Level New York TRACON
Wed 09:04:54 PM 41.4333 -74.0500 132° Southeast 183 211 4,900 -100 Level New York TRACON
Wed 09:05:54 PM 41.4167 -73.9833 108° East 185 213 4,700 -400 Descending New York TRACON
Wed 09:06:54 PM 41.3833 -73.9333 132° Southeast 191 220 4,100 -650 Descending New York TRACON
Wed 09:07:54 PM 41.3667 -73.8667 108° East 192 221 3,400 -550 Descending New York TRACON
Wed 09:08:54 PM 41.3500 -73.8000 108° East 185 213 3,000 -200 Descending New York TRACON
Wed 09:09:54 PM 41.3167 -73.7500 132° Southeast 171 197 3,000  Level New York TRACON
Wed 09:10:54 PM 41.3167 -73.6833 90° East 162 186 3,000 -100 Level New York TRACON
Wed 09:11:54 PM 41.3333 -73.6333 66° East 155 178 2,800 -474 Descending New York TRACON
Wed 09:12:48 PM 41.3333 -73.5833 90° East 135 155 2,100 -737 Descending New York TRACON
Wed 09:13:48 PM 41.3500 -73.5500 56° Northeast 126 145 1,400 -450 Descending New York TRACON
Wed 09:14:48 PM 41.3667 -73.5000 66° East 125 144 1,200 -200 Descending New York TRACON
Wed 09:16:00 PM 41.3715 -73.4822 37° Northeast  Level Estimated
Wed 09:23:00 PM 41.3715 -73.4822 37° Northeast  Level Estimated
Wed 09:24:00 PM 41.3715 -73.4822 37° Northeast  Level Estimated
Wed 09:25:00 PM 41.3715 -73.4822 37° Northeast  Level Estimated
Wed 09:26:00 PM 41.3715 -73.4822 37° Northeast  Level Estimated

Login

Don't have an account? Register now (free) for customized features, flight alerts, and more!